Terminal Aerodrome Forecast
Issued by NWS Mt. Holly, NJ

Home | Current Version | Previous Version | Text Only | Print | Product List | Glossary On
Versions: 1 2 3 4 5 6 7 8 9 10 11 12 13 14 15 16 17
000
FTUS41 KPHI 012300
TAFABE
TAF
KABE 012340Z 0200/0224 17007KT P6SM SCT025 OVC070
     FM020200 VRB04KT P6SM OVC050
     FM020900 07003KT 4SM -SHRA BR SCT020 OVC050
     FM021800 10007KT P6SM BKN050=

USA.gov is the U.S. government's official web portal to all federal, state and local government web resources and services.